HFD Airport (Hartford-Brainard) Information

FAA: HFD - ICAO: KHFD

HFD Airport Location

State Connecticut
County Hartford
City Hartford
HFD Airport is 3 miles southeast of Hartford, CT.
Latitude 41-44-12.2000N
Longitude 072-38-58.0000W
Elevation 18ft

KHFD Airport METARs

METAR KHFD 070853Z AUTO 29003KT 10SM CLR 04/M06 A2996 RMK AO2 SLP144 T00391056 51040
Altimeter 29.96"
Temperature 3.9°C (39.0°F)
Wind 290° at 3KT
Clouds Skies are clear.
Visibility 10.0mi
Time observed: 2021-12-07T08:53:00Z

HFD Airport Details

Status Operational
Activation April 1940
Ownership Public
Usage Public
Chart NEW YORK
ATC on-site Yes
Beacon schedule sunset-sunrise
Beacon color clear green

HFD Airport Contacts

Owner CONNECTICUT AIRPORT AUTHORITY
Owner address SUITE 160, 334 ELLA GRASSO TURNPIKE, WINDSOR LOCKS, CT 06096
Owner phone 860-386-6000
Manager LEE MICHAEL PARTYKA
Manager address 200 SKIFF STREET, HAMDEN, CT 06517
Manager phone 203-288-7761

HFD Airport (Hartford-Brainard) Radio Frequencies

HFD (Airport) Radio Frequencies

UNICOM 122.95
Common traffic advisory frequency (CTAF) 119.6